Time;durP1;ratioP1;P1;durP2;ratioP2;P2;SDS_P1;SDS_P2;PMS_P1;PMS_P2;Temp;Humidity;BMP_temperature;BMP_pressure;BME280_temperature;BME280_humidity;BME280_pressure;Samples;Min_cycle;Max_cycle;Signal;HPM_P1;HPM_P2
2022/07/28 00:01:43;;;;;;;;;;;;;;;15.59;58.64;101899.91;5030218;28;19917;-60
2022/07/28 00:04:08;;;;;;;;;;;;;;;15.62;58.74;101896.91;5029878;28;19975;-59
2022/07/28 00:06:33;;;;;;;;;;;;;;;15.55;58.74;101895.94;5026281;28;19921;-60
2022/07/28 00:08:59;;;;;;;;;;;;;;;15.52;58.79;101897.09;5033001;28;19917;-60
2022/07/28 00:11:24;;;;;;;;;;;;;;;15.51;58.97;101886.56;5028977;28;19917;-59
2022/07/28 00:13:49;;;;;;;;;;;;;;;15.46;58.68;101884.41;5028823;28;19929;-60
2022/07/28 00:16:14;;;;;;;;;;;;;;;15.42;58.51;101889.25;5029631;28;20370;-60
2022/07/28 00:18:39;;;;;;;;;;;;;;;15.49;58.66;101894.75;5017671;28;20446;-60
2022/07/28 00:21:05;;;;;;;;;;;;;;;15.40;58.78;101891.25;5029438;28;19925;-60
2022/07/28 00:23:30;;;;;;;;;;;;;;;15.39;59.10;101900.28;5032575;28;19921;-60
2022/07/28 00:25:55;;;;;;;;;;;;;;;15.37;59.09;101885.41;5028854;28;19925;-60
2022/07/28 00:28:20;;;;;;;;;;;;;;;15.25;59.77;101887.59;5029083;28;20496;-60
2022/07/28 00:30:46;;;;;;;;;;;;;;;15.17;59.45;101891.94;5030764;28;19921;-60
2022/07/28 00:33:11;;;;;;;;;;;;;;;15.16;59.50;101890.25;5031015;28;20361;-60
2022/07/28 00:35:36;;;;;;;;;;;;;;;15.06;59.32;101887.72;5029795;28;20398;-60
2022/07/28 00:38:01;;;;;;;;;;;;;;;15.06;59.82;101893.06;5031024;28;19952;-60
2022/07/28 00:41:09;;;;;;;;;;;;;;;15.03;59.65;101889.91;5026900;28;20360;-60
2022/07/28 00:43:12;;;;;;;;;;;;;;;14.99;59.56;101889.41;5029687;28;19925;-59
2022/07/28 00:45:37;;;;;;;;;;;;;;;14.99;59.38;101893.94;5019761;28;20368;-60
2022/07/28 00:48:03;;;;;;;;;;;;;;;14.97;59.91;101890.56;5031860;28;19925;-60
2022/07/28 00:50:28;;;;;;;;;;;;;;;14.99;60.00;101884.06;5025963;28;19987;-60
2022/07/28 00:52:54;;;;;;;;;;;;;;;14.98;59.99;101886.88;5023135;28;19921;-59
2022/07/28 00:55:21;;;;;;;;;;;;;;;14.98;59.48;101876.19;5030181;28;19929;-60
2022/07/28 00:57:46;;;;;;;;;;;;;;;14.96;59.80;101872.88;5017048;28;20280;-60
2022/07/28 01:00:11;;;;;;;;;;;;;;;14.91;59.82;101871.53;5025343;28;19925;-60
2022/07/28 01:02:36;;;;;;;;;;;;;;;14.96;60.34;101872.88;5023464;28;20188;-60
2022/07/28 01:05:02;;;;;;;;;;;;;;;14.85;60.21;101872.19;5021239;28;19921;-60
2022/07/28 01:07:44;;;;;;;;;;;;;;;14.86;60.17;101879.19;5021139;28;20380;-59
2022/07/28 01:10:18;;;;;;;;;;;;;;;14.76;60.29;101876.66;5030856;28;19926;-59
2022/07/28 01:12:54;;;;;;;;;;;;;;;14.74;60.06;101875.13;5028138;28;19921;-60
2022/07/28 01:15:19;;;;;;;;;;;;;;;14.76;60.11;101878.53;5022850;28;19933;-60
2022/07/28 01:17:57;;;;;;;;;;;;;;;14.73;60.47;101874.31;5016506;28;20004;-60
2022/07/28 01:20:30;;;;;;;;;;;;;;;14.72;60.19;101877.13;5030826;28;19921;-60
2022/07/28 01:23:10;;;;;;;;;;;;;;;14.72;60.54;101869.13;5027359;28;19921;-60
2022/07/28 01:25:47;;;;;;;;;;;;;;;14.73;60.10;101862.78;5033214;28;20017;-60
2022/07/28 01:28:19;;;;;;;;;;;;;;;14.66;60.64;101870.63;5035846;28;19948;-59
2022/07/28 01:30:52;;;;;;;;;;;;;;;14.64;60.42;101875.28;5032028;28;20380;-60
2022/07/28 01:33:19;;;;;;;;;;;;;;;14.62;60.85;101872.81;5022490;28;19928;-60
2022/07/28 01:35:52;;;;;;;;;;;;;;;14.63;60.49;101860.28;5032267;28;20415;-60
2022/07/28 01:38:18;;;;;;;;;;;;;;;14.62;60.47;101864.78;5023285;28;20012;-60
2022/07/28 01:40:45;;;;;;;;;;;;;;;14.60;60.46;101861.44;5025340;28;20009;-60
2022/07/28 01:43:13;;;;;;;;;;;;;;;14.59;60.68;101857.09;5035073;28;19928;-59
2022/07/28 01:45:40;;;;;;;;;;;;;;;14.56;60.45;101854.72;5025812;28;19932;-60
2022/07/28 01:48:05;;;;;;;;;;;;;;;14.53;60.88;101847.91;5035739;28;20334;-60
2022/07/28 01:50:32;;;;;;;;;;;;;;;14.45;60.79;101849.72;5031394;28;19935;-60
2022/07/28 01:52:58;;;;;;;;;;;;;;;14.43;60.76;101857.03;5039687;28;19931;-59
2022/07/28 01:55:24;;;;;;;;;;;;;;;14.41;60.73;101848.38;5032128;28;20016;-60
2022/07/28 01:57:50;;;;;;;;;;;;;;;14.36;61.08;101849.69;5028997;28;19928;-59
2022/07/28 02:00:16;;;;;;;;;;;;;;;14.55;61.70;101846.91;5023370;28;20034;-60
2022/07/28 02:02:44;;;;;;;;;;;;;;;14.33;61.05;101847.34;5030611;28;20003;-60
2022/07/28 02:05:11;;;;;;;;;;;;;;;14.31;61.86;101848.50;5032327;28;19925;-60
2022/07/28 02:07:38;;;;;;;;;;;;;;;14.27;61.13;101842.66;5026529;28;19996;-60
2022/07/28 02:10:04;;;;;;;;;;;;;;;14.30;61.46;101830.84;5029879;28;19928;-60
2022/07/28 02:12:30;;;;;;;;;;;;;;;14.23;61.50;101838.63;5024304;28;20020;-60
2022/07/28 02:14:57;;;;;;;;;;;;;;;14.22;61.86;101842.31;5030305;28;19925;-60
2022/07/28 02:17:29;;;;;;;;;;;;;;;14.19;61.80;101839.94;5014300;28;19921;-60
2022/07/28 02:19:55;;;;;;;;;;;;;;;14.12;61.88;101835.25;5019062;28;19979;-59
2022/07/28 02:22:21;;;;;;;;;;;;;;;14.09;62.10;101830.25;5027893;28;20364;-60
2022/07/28 02:24:47;;;;;;;;;;;;;;;14.07;61.52;101837.56;5030104;28;19953;-60
2022/07/28 02:27:15;;;;;;;;;;;;;;;14.07;61.99;101832.22;5028558;28;19972;-60
2022/07/28 02:29:46;;;;;;;;;;;;;;;14.06;61.88;101832.41;5019341;28;20649;-60
2022/07/28 02:32:31;;;;;;;;;;;;;;;14.09;62.04;101835.59;5030731;28;20391;-60
2022/07/28 02:34:59;;;;;;;;;;;;;;;14.01;62.05;101832.88;5028938;28;19944;-59
2022/07/28 02:37:25;;;;;;;;;;;;;;;14.09;62.23;101832.94;5034054;28;19952;-59
2022/07/28 02:39:52;;;;;;;;;;;;;;;13.98;62.20;101843.88;5033587;28;20288;-59
2022/07/28 02:42:21;;;;;;;;;;;;;;;13.95;62.03;101828.19;5032277;28;20394;-60
2022/07/28 02:44:49;;;;;;;;;;;;;;;13.89;62.81;101834.16;5020421;28;19928;-59
2022/07/28 02:47:21;;;;;;;;;;;;;;;13.85;62.32;101833.63;5027335;28;19933;-59
2022/07/28 02:49:48;;;;;;;;;;;;;;;13.81;62.24;101838.44;5023879;28;19921;-60
2022/07/28 02:52:14;;;;;;;;;;;;;;;13.80;62.08;101831.47;5027088;28;19991;-59
2022/07/28 02:54:40;;;;;;;;;;;;;;;13.84;62.34;101832.81;5028418;28;19968;-60
2022/07/28 02:57:06;;;;;;;;;;;;;;;13.80;62.66;101834.13;5014468;28;19924;-60
2022/07/28 02:59:34;;;;;;;;;;;;;;;13.74;62.77;101832.09;5021821;28;19925;-59
2022/07/28 03:01:59;;;;;;;;;;;;;;;13.67;63.13;101836.38;5030431;28;19921;-60
2022/07/28 03:07:09;;;;;;;;;;;;;;;13.56;62.89;101830.31;5023607;28;19992;-59
2022/07/28 03:09:38;;;;;;;;;;;;;;;13.55;62.65;101827.81;5021750;28;19933;-59
2022/07/28 03:12:03;;;;;;;;;;;;;;;13.56;62.95;101825.00;5005191;28;20307;-59
2022/07/28 03:14:28;;;;;;;;;;;;;;;13.49;63.43;101821.28;5025842;28;19932;-60
2022/07/28 03:16:54;;;;;;;;;;;;;;;13.46;63.03;101826.91;5033378;28;19921;-60
2022/07/28 03:19:19;;;;;;;;;;;;;;;13.43;63.16;101824.53;5028253;28;19938;-60
2022/07/28 03:21:48;;;;;;;;;;;;;;;13.45;63.00;101831.38;5028927;28;19921;-60
2022/07/28 03:24:15;;;;;;;;;;;;;;;13.44;63.15;101826.22;5027220;28;20392;-60
2022/07/28 03:26:42;;;;;;;;;;;;;;;13.44;62.89;101836.88;5031862;28;20296;-60
2022/07/28 03:29:09;;;;;;;;;;;;;;;13.41;63.30;101831.84;5030146;28;20412;-60
2022/07/28 03:31:35;;;;;;;;;;;;;;;13.35;63.14;101832.47;5032310;28;20368;-60
2022/07/28 03:34:01;;;;;;;;;;;;;;;13.29;63.10;101834.78;5002969;28;20429;-60
2022/07/28 03:36:29;;;;;;;;;;;;;;;13.28;63.14;101841.06;5020189;28;20005;-59
2022/07/28 03:39:00;;;;;;;;;;;;;;;13.25;63.12;101836.06;5031009;28;20371;-59
2022/07/28 03:41:26;;;;;;;;;;;;;;;13.31;63.38;101843.44;5030375;28;20450;-60
2022/07/28 03:43:53;;;;;;;;;;;;;;;13.24;62.94;101834.41;5029917;28;19928;-60
2022/07/28 03:46:20;;;;;;;;;;;;;;;13.22;63.18;101833.69;5030242;28;20589;-60
2022/07/28 03:48:45;;;;;;;;;;;;;;;13.20;63.43;101835.69;5030488;28;19944;-60
2022/07/28 03:51:10;;;;;;;;;;;;;;;13.17;63.39;101836.84;5030222;28;20360;-60
2022/07/28 03:53:36;;;;;;;;;;;;;;;13.10;63.44;101829.59;5029679;28;19925;-59
2022/07/28 03:56:02;;;;;;;;;;;;;;;13.13;63.54;101831.97;5025237;28;19928;-59
2022/07/28 03:58:27;;;;;;;;;;;;;;;13.05;63.91;101827.41;5031944;28;20292;-59
2022/07/28 04:00:52;;;;;;;;;;;;;;;13.07;63.92;101829.94;5020756;28;19928;-59
2022/07/28 04:03:18;;;;;;;;;;;;;;;12.93;64.86;101829.47;5030681;28;19932;-60
2022/07/28 04:05:43;;;;;;;;;;;;;;;12.93;64.05;101832.13;5028200;28;20020;-60
2022/07/28 04:08:09;;;;;;;;;;;;;;;12.92;64.42;101827.78;5032565;28;20011;-60
2022/07/28 04:10:34;;;;;;;;;;;;;;;12.96;64.45;101830.97;5028775;28;19925;-59
2022/07/28 04:12:59;;;;;;;;;;;;;;;12.86;64.15;101829.25;5025967;28;19967;-60
2022/07/28 04:15:25;;;;;;;;;;;;;;;12.87;64.19;101825.59;5029397;28;19921;-60
2022/07/28 04:17:53;;;;;;;;;;;;;;;12.96;64.09;101834.50;5019753;28;21373;-59
2022/07/28 04:20:19;;;;;;;;;;;;;;;12.92;64.24;101827.78;5029243;28;19978;-60
2022/07/28 04:22:45;;;;;;;;;;;;;;;12.87;64.37;101832.72;5024504;28;19925;-59
2022/07/28 04:25:13;;;;;;;;;;;;;;;12.88;64.11;101831.78;5030675;28;19927;-60
2022/07/28 04:27:39;;;;;;;;;;;;;;;12.86;64.38;101831.06;5030706;28;19925;-60
2022/07/28 04:30:04;;;;;;;;;;;;;;;12.85;64.71;101829.41;5031289;28;19928;-59
2022/07/28 04:32:30;;;;;;;;;;;;;;;12.90;64.30;101819.13;5030491;28;19921;-59
2022/07/28 04:34:55;;;;;;;;;;;;;;;12.90;64.16;101825.31;5024078;28;19922;-60
2022/07/28 04:37:20;;;;;;;;;;;;;;;12.91;64.46;101826.97;5022977;28;19925;-60
2022/07/28 04:39:46;;;;;;;;;;;;;;;12.95;64.52;101827.50;5019629;28;20399;-59
2022/07/28 04:42:11;;;;;;;;;;;;;;;12.99;64.55;101823.56;5025128;28;19925;-59
2022/07/28 04:44:41;;;;;;;;;;;;;;;13.01;64.85;101826.03;5019907;28;20005;-58
2022/07/28 04:47:06;;;;;;;;;;;;;;;12.97;64.83;101825.50;5023046;28;20549;-57
2022/07/28 04:49:31;;;;;;;;;;;;;;;13.00;65.14;101824.38;5019675;28;19922;-59
2022/07/28 04:51:56;;;;;;;;;;;;;;;12.98;64.73;101821.84;5005424;28;20016;-59
2022/07/28 04:54:21;;;;;;;;;;;;;;;12.97;64.74;101819.38;5015553;28;19929;-58
2022/07/28 04:56:47;;;;;;;;;;;;;;;12.99;64.40;101823.56;5021264;28;19972;-58
2022/07/28 04:59:12;;;;;;;;;;;;;;;13.01;64.53;101826.88;5033077;28;19921;-58
2022/07/28 05:01:38;;;;;;;;;;;;;;;13.04;64.76;101831.88;5027088;28;19929;-58
2022/07/28 05:04:06;;;;;;;;;;;;;;;13.09;64.85;101828.78;5032870;28;19917;-58
2022/07/28 05:06:33;;;;;;;;;;;;;;;13.12;65.03;101819.66;5035995;28;19936;-58
2022/07/28 05:08:58;;;;;;;;;;;;;;;13.03;65.56;101827.56;5028346;28;19917;-58
2022/07/28 05:11:24;;;;;;;;;;;;;;;13.01;65.46;101831.38;5026401;28;20407;-58
2022/07/28 05:13:50;;;;;;;;;;;;;;;13.05;65.27;101822.09;5029713;28;19925;-58
2022/07/28 05:16:16;;;;;;;;;;;;;;;13.04;66.10;101837.22;5024751;28;20384;-58
2022/07/28 05:18:41;;;;;;;;;;;;;;;13.04;65.25;101831.06;5027578;28;20012;-58
2022/07/28 05:21:06;;;;;;;;;;;;;;;13.09;65.51;101835.94;5024997;28;19928;-58
2022/07/28 05:23:31;;;;;;;;;;;;;;;13.09;65.49;101834.13;5027833;28;20040;-57
2022/07/28 05:25:56;;;;;;;;;;;;;;;13.16;65.49;101836.97;5026325;28;19921;-58
2022/07/28 05:28:21;;;;;;;;;;;;;;;13.16;65.25;101842.31;5019728;28;19975;-58
2022/07/28 05:30:47;;;;;;;;;;;;;;;13.23;65.32;101835.38;5025595;28;20020;-58
2022/07/28 05:33:13;;;;;;;;;;;;;;;13.31;65.16;101837.25;5032532;28;20291;-58
2022/07/28 05:35:39;;;;;;;;;;;;;;;13.38;65.53;101838.31;5027780;28;19925;-58
2022/07/28 05:38:04;;;;;;;;;;;;;;;13.45;65.60;101835.88;5034011;28;20406;-59
2022/07/28 05:40:29;;;;;;;;;;;;;;;13.39;65.57;101839.16;5033755;28;19925;-58
2022/07/28 05:42:54;;;;;;;;;;;;;;;13.55;65.99;101833.97;5031808;28;20390;-58
2022/07/28 05:45:19;;;;;;;;;;;;;;;13.52;65.62;101818.28;5030471;28;19955;-59
2022/07/28 05:47:48;;;;;;;;;;;;;;;13.53;65.52;101837.78;5034396;28;19953;-58
2022/07/28 05:50:14;;;;;;;;;;;;;;;13.59;66.00;101837.97;5019969;28;19922;-59
2022/07/28 05:52:39;;;;;;;;;;;;;;;13.63;65.72;101835.88;5025059;28;19967;-58
2022/07/28 05:55:05;;;;;;;;;;;;;;;13.73;65.50;101841.09;5017138;28;19937;-58
2022/07/28 05:57:30;;;;;;;;;;;;;;;13.79;65.44;101829.78;5029673;28;19921;-59
2022/07/28 05:59:55;;;;;;;;;;;;;;;13.84;65.63;101832.81;5028683;28;19925;-58
2022/07/28 06:02:20;;;;;;;;;;;;;;;14.05;64.98;101834.22;5028849;28;20016;-59
2022/07/28 06:04:45;;;;;;;;;;;;;;;13.96;65.36;101840.53;5028526;28;19922;-59
2022/07/28 06:07:11;;;;;;;;;;;;;;;14.07;65.08;101842.91;5032085;28;20447;-59
2022/07/28 06:09:36;;;;;;;;;;;;;;;13.99;65.27;101840.22;5000284;28;20276;-59
2022/07/28 06:12:01;;;;;;;;;;;;;;;13.97;65.20;101844.88;5030949;28;19928;-59
2022/07/28 06:14:26;;;;;;;;;;;;;;;13.96;65.09;101832.53;5030578;28;20008;-59
2022/07/28 06:16:51;;;;;;;;;;;;;;;14.12;64.85;101829.94;5028031;28;19921;-59
2022/07/28 06:19:17;;;;;;;;;;;;;;;14.13;64.89;101836.94;5024608;28;20391;-59
2022/07/28 06:21:42;;;;;;;;;;;;;;;14.10;64.74;101836.41;5024083;28;19925;-59
2022/07/28 06:24:08;;;;;;;;;;;;;;;14.17;65.20;101837.47;5018661;28;19925;-60
2022/07/28 06:26:35;;;;;;;;;;;;;;;14.13;64.73;101839.59;5018613;28;19961;-60
2022/07/28 06:29:00;;;;;;;;;;;;;;;14.10;64.98;101831.94;5019898;28;20016;-60
2022/07/28 06:31:25;;;;;;;;;;;;;;;14.09;65.29;101835.59;5022932;28;20007;-60
2022/07/28 06:33:50;;;;;;;;;;;;;;;14.28;64.26;101831.00;5024111;28;19979;-60
2022/07/28 06:36:16;;;;;;;;;;;;;;;14.30;64.25;101829.00;5025515;28;20384;-60
2022/07/28 06:38:41;;;;;;;;;;;;;;;14.27;64.22;101837.34;5020238;28;19921;-60
2022/07/28 06:41:06;;;;;;;;;;;;;;;14.31;64.69;101836.00;5026290;28;19925;-60
2022/07/28 06:43:31;;;;;;;;;;;;;;;14.45;64.49;101834.53;5027201;28;19922;-61
2022/07/28 06:45:57;;;;;;;;;;;;;;;14.60;63.75;101836.59;5026045;28;20012;-60
2022/07/28 06:48:22;;;;;;;;;;;;;;;14.65;63.76;101834.25;5032108;28;19921;-60
2022/07/28 06:50:47;;;;;;;;;;;;;;;14.81;63.55;101827.28;5031521;28;20003;-60
2022/07/28 06:53:12;;;;;;;;;;;;;;;14.81;63.59;101832.63;5017674;28;19928;-60
2022/07/28 06:55:37;;;;;;;;;;;;;;;14.95;62.96;101833.81;5028171;28;20265;-61
2022/07/28 06:58:03;;;;;;;;;;;;;;;15.14;62.04;101838.00;5032881;28;20426;-60
2022/07/28 07:00:28;;;;;;;;;;;;;;;15.04;62.24;101838.16;5029961;28;20257;-60
2022/07/28 07:02:54;;;;;;;;;;;;;;;14.99;62.70;101835.16;5022747;28;19928;-60
2022/07/28 07:05:19;;;;;;;;;;;;;;;15.09;62.23;101841.16;5027827;28;19946;-61
2022/07/28 07:07:44;;;;;;;;;;;;;;;15.19;61.98;101836.50;5024082;28;20383;-60
2022/07/28 07:10:10;;;;;;;;;;;;;;;15.18;61.92;101840.16;5031986;28;19936;-60
2022/07/28 07:12:35;;;;;;;;;;;;;;;15.07;62.27;101838.66;5020132;28;19921;-60
2022/07/28 07:15:01;;;;;;;;;;;;;;;15.09;61.97;101838.47;5028637;28;19932;-60
2022/07/28 07:17:26;;;;;;;;;;;;;;;15.18;62.49;101840.16;5030464;28;19921;-60
2022/07/28 07:19:51;;;;;;;;;;;;;;;15.37;61.93;101840.81;5025375;28;19922;-60
2022/07/28 07:22:17;;;;;;;;;;;;;;;15.55;62.13;101834.44;5024084;28;19932;-61
2022/07/28 07:24:42;;;;;;;;;;;;;;;15.77;61.48;101834.72;5018727;28;19925;-60
2022/07/28 07:27:07;;;;;;;;;;;;;;;15.91;61.29;101836.69;5029878;28;20414;-61
2022/07/28 07:29:32;;;;;;;;;;;;;;;16.14;60.62;101839.47;5030552;28;20300;-61
2022/07/28 07:31:58;;;;;;;;;;;;;;;16.25;60.42;101835.53;5028650;28;19925;-61
2022/07/28 07:34:23;;;;;;;;;;;;;;;16.37;59.61;101837.84;5033329;28;20369;-60
2022/07/28 07:36:48;;;;;;;;;;;;;;;16.50;57.73;101848.81;5028204;28;19955;-60
2022/07/28 07:39:14;;;;;;;;;;;;;;;16.38;59.04;101829.63;5032391;28;19921;-61
2022/07/28 07:41:39;;;;;;;;;;;;;;;16.39;58.58;101828.63;5026413;28;20047;-61
2022/07/28 07:44:04;;;;;;;;;;;;;;;16.39;58.02;101835.84;5020460;28;20392;-61
2022/07/28 07:46:29;;;;;;;;;;;;;;;16.31;58.50;101833.19;5019611;28;19925;-58
2022/07/28 07:48:55;;;;;;;;;;;;;;;16.29;58.63;101829.88;5017194;28;19929;-59
2022/07/28 07:51:20;;;;;;;;;;;;;;;16.45;58.33;101828.94;5019738;28;19929;-58
2022/07/28 07:53:45;;;;;;;;;;;;;;;16.49;58.23;101824.91;5024742;28;19925;-58
2022/07/28 07:56:10;;;;;;;;;;;;;;;16.71;57.85;101825.91;5023828;28;19952;-58
2022/07/28 07:58:35;;;;;;;;;;;;;;;16.59;57.69;101832.69;5023894;28;19964;-58
2022/07/28 08:01:00;;;;;;;;;;;;;;;16.63;57.59;101820.63;5019967;28;19924;-59
2022/07/28 08:03:26;;;;;;;;;;;;;;;16.67;58.32;101824.59;5029886;28;19964;-58
2022/07/28 08:05:55;;;;;;;;;;;;;;;16.77;58.29;101819.84;5014331;28;20004;-59
2022/07/28 08:08:20;;;;;;;;;;;;;;;16.90;58.21;101823.78;5015216;28;19964;-59
2022/07/28 08:10:45;;;;;;;;;;;;;;;17.04;57.90;101828.41;5023573;28;19948;-58
2022/07/28 08:13:11;;;;;;;;;;;;;;;17.12;57.18;101819.44;5030045;28;20534;-60
2022/07/28 08:15:36;;;;;;;;;;;;;;;17.23;56.07;101823.53;5026870;28;20016;-60
2022/07/28 08:18:01;;;;;;;;;;;;;;;17.23;55.85;101820.84;5023347;28;19963;-61
2022/07/28 08:20:26;;;;;;;;;;;;;;;17.18;56.37;101820.56;5029732;28;20011;-61
2022/07/28 08:22:53;;;;;;;;;;;;;;;17.15;56.63;101820.91;5031277;28;19925;-61
2022/07/28 08:25:18;;;;;;;;;;;;;;;17.32;55.63;101819.75;5030215;28;19940;-61
2022/07/28 08:27:43;;;;;;;;;;;;;;;17.44;55.49;101806.75;5015349;28;19921;-61
2022/07/28 08:30:09;;;;;;;;;;;;;;;17.43;55.43;101820.31;5029643;28;19928;-61
2022/07/28 08:32:34;;;;;;;;;;;;;;;17.46;55.32;101819.94;5023837;28;19928;-61
2022/07/28 08:35:00;;;;;;;;;;;;;;;17.45;55.68;101818.28;5032586;28;19917;-60
2022/07/28 08:37:25;;;;;;;;;;;;;;;17.58;56.39;101815.78;5031800;28;19975;-60
2022/07/28 08:39:50;;;;;;;;;;;;;;;17.77;55.63;101818.97;5032274;28;19949;-60
2022/07/28 08:42:23;;;;;;;;;;;;;;;17.84;55.46;101819.88;5027925;28;20430;-58
2022/07/28 08:45:00;;;;;;;;;;;;;;;18.00;54.27;101804.56;5027667;28;20017;-60
2022/07/28 08:47:26;;;;;;;;;;;;;;;18.01;54.74;101811.63;5028702;28;19925;-61
2022/07/28 08:49:52;;;;;;;;;;;;;;;18.06;54.90;101803.84;5015748;28;20004;-59
2022/07/28 08:52:19;;;;;;;;;;;;;;;18.18;55.02;101811.41;5025984;28;19936;-59
2022/07/28 08:54:45;;;;;;;;;;;;;;;18.31;53.97;101816.97;5029084;28;19921;-59
2022/07/28 08:57:15;;;;;;;;;;;;;;;18.44;53.58;101804.72;5028316;28;19945;-58
2022/07/28 08:59:40;;;;;;;;;;;;;;;18.42;52.16;101813.75;5015123;28;19921;-59
2022/07/28 09:02:09;;;;;;;;;;;;;;;18.47;52.67;101809.69;5027214;28;19967;-59
2022/07/28 09:04:37;;;;;;;;;;;;;;;18.47;52.74;101796.25;5025312;28;20017;-59
2022/07/28 09:07:03;;;;;;;;;;;;;;;18.51;52.85;101800.22;5023366;28;19928;-59
2022/07/28 09:09:28;;;;;;;;;;;;;;;18.51;52.63;101797.53;5026777;28;20004;-59
2022/07/28 09:11:53;;;;;;;;;;;;;;;18.52;52.52;101788.47;5022677;28;19922;-59
2022/07/28 09:14:19;;;;;;;;;;;;;;;18.66;52.94;101776.81;5030314;28;20003;-59
2022/07/28 09:16:44;;;;;;;;;;;;;;;18.74;52.85;101783.09;5032265;28;20371;-59
2022/07/28 09:19:09;;;;;;;;;;;;;;;18.90;52.37;101774.75;5020195;28;19926;-59
2022/07/28 09:21:35;;;;;;;;;;;;;;;18.97;52.15;101774.81;5025427;28;19944;-59
2022/07/28 09:24:00;;;;;;;;;;;;;;;19.10;50.61;101779.50;5029059;28;19921;-59
2022/07/28 09:26:25;;;;;;;;;;;;;;;18.98;52.31;101762.22;5029176;28;19952;-58
2022/07/28 09:28:54;;;;;;;;;;;;;;;19.04;51.62;101761.47;5030782;28;20442;-58
2022/07/28 09:31:21;;;;;;;;;;;;;;;19.26;50.67;101747.94;5027033;28;19929;-59
2022/07/28 09:33:59;;;;;;;;;;;;;;;19.22;50.28;101753.72;5026156;28;19949;-59
2022/07/28 09:36:25;;;;;;;;;;;;;;;19.14;50.92;101744.97;5030675;28;19921;-59
2022/07/28 09:38:51;;;;;;;;;;;;;;;19.27;50.68;101749.59;5031172;28;19921;-59
2022/07/28 09:41:18;;;;;;;;;;;;;;;19.33;51.27;101738.03;5029845;28;19921;-59
2022/07/28 09:43:44;;;;;;;;;;;;;;;19.30;50.72;101739.25;5030526;28;19921;-58
2022/07/28 09:46:16;;;;;;;;;;;;;;;19.41;50.86;101735.22;5019472;28;19917;-59
2022/07/28 09:48:47;;;;;;;;;;;;;;;19.56;51.16;101736.91;5018741;28;19972;-59
2022/07/28 09:51:13;;;;;;;;;;;;;;;19.67;51.16;101738.19;5020942;28;19921;-59
2022/07/28 09:53:38;;;;;;;;;;;;;;;19.88;50.04;101750.69;5034789;28;20396;-59
2022/07/28 09:56:03;;;;;;;;;;;;;;;19.92;48.82;101746.59;5028536;28;20300;-59
2022/07/28 09:58:28;;;;;;;;;;;;;;;19.94;47.36;101759.84;5031257;28;20361;-60
2022/07/28 10:01:06;;;;;;;;;;;;;;;19.84;47.91;101749.47;5023914;28;19964;-59
2022/07/28 10:03:31;;;;;;;;;;;;;;;19.93;47.43;101750.13;5031117;28;19921;-59
2022/07/28 10:05:58;;;;;;;;;;;;;;;19.90;47.67;101749.47;5033796;28;20442;-59
2022/07/28 10:08:42;;;;;;;;;;;;;;;19.85;48.33;101751.13;5034075;28;19925;-59
2022/07/28 10:11:07;;;;;;;;;;;;;;;19.98;48.40;101745.00;5030742;28;19921;-59
2022/07/28 10:13:33;;;;;;;;;;;;;;;20.03;47.40;101746.03;5030500;28;19991;-59
2022/07/28 10:16:11;;;;;;;;;;;;;;;19.99;48.70;101747.47;5034675;28;20001;-59
2022/07/28 10:18:39;;;;;;;;;;;;;;;20.14;48.62;101744.59;5025229;28;19921;-60
2022/07/28 10:21:12;;;;;;;;;;;;;;;20.24;48.05;101738.81;5033305;28;19956;-59
2022/07/28 10:23:41;;;;;;;;;;;;;;;20.32;48.22;101734.28;5033685;28;19919;-60
2022/07/28 10:26:08;;;;;;;;;;;;;;;20.49;45.71;101738.25;5015827;28;19925;-59
2022/07/28 10:28:35;;;;;;;;;;;;;;;20.44;46.67;101732.66;5029613;28;19921;-58
2022/07/28 10:31:01;;;;;;;;;;;;;;;20.47;46.98;101731.41;5028506;28;20283;-59
2022/07/28 10:33:29;;;;;;;;;;;;;;;20.59;47.25;101734.31;5025919;28;19971;-59
2022/07/28 10:35:55;;;;;;;;;;;;;;;20.68;47.20;101730.38;5031611;28;20276;-60
2022/07/28 10:38:20;;;;;;;;;;;;;;;20.80;45.06;101731.41;5031634;28;19928;-60
2022/07/28 10:40:46;;;;;;;;;;;;;;;20.97;44.79;101725.63;5031875;28;19922;-60
2022/07/28 10:43:12;;;;;;;;;;;;;;;20.98;44.44;101726.44;5031716;28;19983;-60
2022/07/28 10:45:38;;;;;;;;;;;;;;;20.82;45.45;101718.53;5033097;28;19921;-60
2022/07/28 10:48:06;;;;;;;;;;;;;;;20.81;45.86;101722.28;5028776;28;19928;-60
2022/07/28 10:50:33;;;;;;;;;;;;;;;20.99;45.35;101731.63;5024584;28;19921;-60
2022/07/28 10:52:58;;;;;;;;;;;;;;;21.08;44.30;101722.25;5023388;28;20032;-60
2022/07/28 10:55:27;;;;;;;;;;;;;;;20.98;44.93;101721.88;5024841;28;20004;-59
2022/07/28 10:58:10;;;;;;;;;;;;;;;21.00;45.99;101719.78;5023755;28;19928;-60
2022/07/28 11:00:42;;;;;;;;;;;;;;;21.11;45.14;101721.00;5025619;28;20462;-59
2022/07/28 11:03:07;;;;;;;;;;;;;;;21.07;44.82;101709.81;5033288;28;19974;-59
2022/07/28 11:05:37;;;;;;;;;;;;;;;21.19;44.35;101717.25;5032671;28;19921;-59
2022/07/28 11:08:05;;;;;;;;;;;;;;;21.18;45.25;101721.84;5031485;28;19966;-60
2022/07/28 11:10:41;;;;;;;;;;;;;;;21.26;45.18;101701.88;5028728;28;19928;-60
2022/07/28 11:13:21;;;;;;;;;;;;;;;21.37;45.04;101706.63;5016785;28;19928;-60
2022/07/28 11:15:46;;;;;;;;;;;;;;;21.55;44.23;101705.09;5019947;28;20288;-61
2022/07/28 11:18:12;;;;;;;;;;;;;;;21.62;44.51;101694.28;5027283;28;19929;-59
2022/07/28 11:20:52;;;;;;;;;;;;;;;21.85;43.35;101692.97;5020402;28;19956;-60
2022/07/28 11:23:36;;;;;;;;;;;;;;;21.89;42.63;101695.00;5018724;28;20445;-60
2022/07/28 11:26:19;;;;;;;;;;;;;;;21.78;43.31;101687.59;5030785;28;20000;-60
2022/07/28 11:28:57;;;;;;;;;;;;;;;21.89;41.91;101691.47;5028157;28;19918;-63
2022/07/28 11:31:41;;;;;;;;;;;;;;;21.75;41.09;101688.00;5019958;28;19925;-60
2022/07/28 11:34:07;;;;;;;;;;;;;;;21.58;42.64;101688.50;5030400;28;19924;-60
2022/07/28 11:36:51;;;;;;;;;;;;;;;21.71;42.69;101693.03;5030603;28;19983;-60
2022/07/28 11:39:20;;;;;;;;;;;;;;;21.58;43.38;101691.19;5027376;28;19921;-60
2022/07/28 11:41:45;;;;;;;;;;;;;;;21.69;43.18;101689.69;5030229;28;19921;-60
2022/07/28 11:44:27;;;;;;;;;;;;;;;21.79;42.37;101683.84;5032456;28;19928;-59
2022/07/28 11:46:52;;;;;;;;;;;;;;;21.92;42.63;101665.91;5029282;28;19929;-60
2022/07/28 11:49:19;;;;;;;;;;;;;;;22.17;41.61;101671.34;5028473;28;19947;-60
2022/07/28 11:52:03;;;;;;;;;;;;;;;22.07;41.66;101658.34;5027151;28;19949;-59
2022/07/28 11:54:29;;;;;;;;;;;;;;;22.14;41.15;101669.06;5033033;28;19921;-60
2022/07/28 11:56:57;;;;;;;;;;;;;;;22.23;40.93;101661.53;5026072;28;19936;-59
2022/07/28 11:59:22;;;;;;;;;;;;;;;22.30;41.11;101659.63;5027481;28;19928;-60
2022/07/28 12:01:51;;;;;;;;;;;;;;;22.42;41.25;101665.97;5029716;28;19925;-60
2022/07/28 12:04:18;;;;;;;;;;;;;;;22.49;42.31;101651.56;5032496;28;19968;-61
2022/07/28 12:06:45;;;;;;;;;;;;;;;22.69;40.77;101654.09;5031167;28;20316;-60
2022/07/28 12:09:12;;;;;;;;;;;;;;;22.74;40.56;101645.31;5030285;28;19921;-61
2022/07/28 12:11:39;;;;;;;;;;;;;;;22.67;41.54;101651.63;5022616;28;20497;-60
2022/07/28 12:14:08;;;;;;;;;;;;;;;22.74;41.48;101658.84;5032290;28;20369;-60
2022/07/28 12:16:35;;;;;;;;;;;;;;;22.95;40.70;101668.41;5027266;28;19967;-60
2022/07/28 12:19:01;;;;;;;;;;;;;;;22.74;41.14;101656.94;5014793;28;19922;-60
2022/07/28 12:21:38;;;;;;;;;;;;;;;22.85;40.09;101655.41;5018650;28;19992;-60
2022/07/28 12:24:04;;;;;;;;;;;;;;;22.64;39.89;101652.06;5031395;28;20027;-60
2022/07/28 12:26:30;;;;;;;;;;;;;;;22.54;40.39;101649.03;5024240;28;20000;-60
2022/07/28 12:28:55;;;;;;;;;;;;;;;22.54;41.18;101641.75;5022041;28;20269;-60
2022/07/28 12:31:24;;;;;;;;;;;;;;;22.69;39.33;101644.13;5030133;28;19923;-61
2022/07/28 12:33:50;;;;;;;;;;;;;;;22.76;40.17;101643.22;5023099;28;19925;-60
2022/07/28 12:36:18;;;;;;;;;;;;;;;22.93;39.37;101644.28;5028319;28;19948;-60
2022/07/28 12:38:44;;;;;;;;;;;;;;;22.86;38.06;101643.53;5021855;28;19924;-61